sensor_id;sensor_type;location;lat;lon;timestamp;P1;durP1;ratioP1;P2;durP2;ratioP2
8060;SDS011;4073;42.626;25.386;2023-05-18T00:00:36;37.43;;;12.57;;
8060;SDS011;4073;42.626;25.386;2023-05-18T00:03:01;43.10;;;12.37;;
8060;SDS011;4073;42.626;25.386;2023-05-18T00:05:27;17.60;;;10.90;;
8060;SDS011;4073;42.626;25.386;2023-05-18T00:07:58;26.50;;;11.40;;
8060;SDS011;4073;42.626;25.386;2023-05-18T00:10:24;17.77;;;11.73;;
8060;SDS011;4073;42.626;25.386;2023-05-18T00:12:49;21.70;;;12.57;;
8060;SDS011;4073;42.626;25.386;2023-05-18T00:15:15;13.17;;;10.33;;
8060;SDS011;4073;42.626;25.386;2023-05-18T00:17:40;14.63;;;10.77;;
8060;SDS011;4073;42.626;25.386;2023-05-18T00:20:06;14.77;;;9.77;;
8060;SDS011;4073;42.626;25.386;2023-05-18T00:22:33;12.90;;;9.00;;
8060;SDS011;4073;42.626;25.386;2023-05-18T00:24:59;14.03;;;8.87;;
8060;SDS011;4073;42.626;25.386;2023-05-18T00:27:24;15.60;;;9.00;;
8060;SDS011;4073;42.626;25.386;2023-05-18T00:29:50;11.47;;;8.27;;
8060;SDS011;4073;42.626;25.386;2023-05-18T00:32:16;11.97;;;8.23;;
8060;SDS011;4073;42.626;25.386;2023-05-18T00:34:41;11.77;;;7.70;;
8060;SDS011;4073;42.626;25.386;2023-05-18T00:37:07;10.67;;;7.50;;
8060;SDS011;4073;42.626;25.386;2023-05-18T00:39:32;11.13;;;8.30;;
8060;SDS011;4073;42.626;25.386;2023-05-18T00:41:58;11.03;;;8.10;;
8060;SDS011;4073;42.626;25.386;2023-05-18T00:44:23;12.17;;;8.40;;
8060;SDS011;4073;42.626;25.386;2023-05-18T00:46:49;13.03;;;8.00;;
8060;SDS011;4073;42.626;25.386;2023-05-18T00:49:14;13.47;;;9.63;;
8060;SDS011;4073;42.626;25.386;2023-05-18T00:51:40;12.17;;;8.33;;
8060;SDS011;4073;42.626;25.386;2023-05-18T00:54:06;12.50;;;7.83;;
8060;SDS011;4073;42.626;25.386;2023-05-18T00:56:32;17.90;;;8.73;;
8060;SDS011;4073;42.626;25.386;2023-05-18T00:59:01;13.03;;;8.27;;
8060;SDS011;4073;42.626;25.386;2023-05-18T01:01:30;14.13;;;9.00;;
8060;SDS011;4073;42.626;25.386;2023-05-18T01:04:00;17.70;;;9.83;;
8060;SDS011;4073;42.626;25.386;2023-05-18T01:06:28;17.23;;;11.00;;
8060;SDS011;4073;42.626;25.386;2023-05-18T01:09:00;14.60;;;9.37;;
8060;SDS011;4073;42.626;25.386;2023-05-18T01:14:12;19.30;;;10.33;;
8060;SDS011;4073;42.626;25.386;2023-05-18T01:16:47;22.83;;;11.37;;
8060;SDS011;4073;42.626;25.386;2023-05-18T01:24:48;15.53;;;11.70;;
8060;SDS011;4073;42.626;25.386;2023-05-18T01:27:17;14.73;;;10.43;;
8060;SDS011;4073;42.626;25.386;2023-05-18T01:29:48;10.63;;;9.10;;
8060;SDS011;4073;42.626;25.386;2023-05-18T01:32:19;11.80;;;8.80;;
8060;SDS011;4073;42.626;25.386;2023-05-18T01:34:45;13.43;;;8.73;;
8060;SDS011;4073;42.626;25.386;2023-05-18T01:37:11;12.73;;;8.10;;
8060;SDS011;4073;42.626;25.386;2023-05-18T01:39:37;13.70;;;9.53;;
8060;SDS011;4073;42.626;25.386;2023-05-18T01:42:07;13.67;;;9.33;;
8060;SDS011;4073;42.626;25.386;2023-05-18T01:44:49;11.93;;;9.00;;
8060;SDS011;4073;42.626;25.386;2023-05-18T01:47:17;9.90;;;7.77;;
8060;SDS011;4073;42.626;25.386;2023-05-18T01:50:05;10.63;;;6.73;;
8060;SDS011;4073;42.626;25.386;2023-05-18T01:52:59;9.27;;;7.07;;
8060;SDS011;4073;42.626;25.386;2023-05-18T01:55:41;15.13;;;7.70;;
8060;SDS011;4073;42.626;25.386;2023-05-18T01:58:09;14.80;;;7.60;;
8060;SDS011;4073;42.626;25.386;2023-05-18T02:00:36;9.80;;;6.27;;
8060;SDS011;4073;42.626;25.386;2023-05-18T02:03:02;11.30;;;6.77;;
8060;SDS011;4073;42.626;25.386;2023-05-18T02:05:27;23.33;;;8.13;;
8060;SDS011;4073;42.626;25.386;2023-05-18T02:07:53;8.80;;;6.43;;
8060;SDS011;4073;42.626;25.386;2023-05-18T02:10:18;16.43;;;8.00;;
8060;SDS011;4073;42.626;25.386;2023-05-18T02:12:44;26.60;;;9.03;;
8060;SDS011;4073;42.626;25.386;2023-05-18T02:15:13;24.73;;;7.90;;
8060;SDS011;4073;42.626;25.386;2023-05-18T02:17:38;21.00;;;9.10;;
8060;SDS011;4073;42.626;25.386;2023-05-18T02:20:04;23.30;;;9.03;;
8060;SDS011;4073;42.626;25.386;2023-05-18T02:22:34;15.70;;;7.33;;
8060;SDS011;4073;42.626;25.386;2023-05-18T02:25:00;16.37;;;7.10;;
8060;SDS011;4073;42.626;25.386;2023-05-18T02:27:26;20.13;;;7.30;;
8060;SDS011;4073;42.626;25.386;2023-05-18T02:29:52;23.67;;;7.50;;
8060;SDS011;4073;42.626;25.386;2023-05-18T02:32:18;20.67;;;7.10;;
8060;SDS011;4073;42.626;25.386;2023-05-18T02:34:44;23.50;;;8.93;;
8060;SDS011;4073;42.626;25.386;2023-05-18T02:37:10;28.13;;;8.43;;
8060;SDS011;4073;42.626;25.386;2023-05-18T02:39:38;35.37;;;6.63;;
8060;SDS011;4073;42.626;25.386;2023-05-18T02:42:03;13.10;;;6.83;;
8060;SDS011;4073;42.626;25.386;2023-05-18T02:44:29;24.80;;;7.47;;
8060;SDS011;4073;42.626;25.386;2023-05-18T02:46:55;15.37;;;7.10;;
8060;SDS011;4073;42.626;25.386;2023-05-18T02:49:21;26.03;;;7.97;;
8060;SDS011;4073;42.626;25.386;2023-05-18T02:51:46;24.93;;;8.70;;
8060;SDS011;4073;42.626;25.386;2023-05-18T02:54:11;35.87;;;8.87;;
8060;SDS011;4073;42.626;25.386;2023-05-18T02:56:37;37.53;;;9.37;;
8060;SDS011;4073;42.626;25.386;2023-05-18T02:59:02;27.57;;;8.03;;
8060;SDS011;4073;42.626;25.386;2023-05-18T03:01:28;35.90;;;7.53;;
8060;SDS011;4073;42.626;25.386;2023-05-18T03:03:54;25.70;;;6.57;;
8060;SDS011;4073;42.626;25.386;2023-05-18T03:06:21;29.23;;;7.20;;
8060;SDS011;4073;42.626;25.386;2023-05-18T03:08:50;23.97;;;7.20;;
8060;SDS011;4073;42.626;25.386;2023-05-18T03:11:18;43.53;;;6.83;;
8060;SDS011;4073;42.626;25.386;2023-05-18T03:13:45;22.27;;;6.40;;
8060;SDS011;4073;42.626;25.386;2023-05-18T03:16:11;31.47;;;5.87;;
8060;SDS011;4073;42.626;25.386;2023-05-18T03:18:37;21.33;;;6.07;;
8060;SDS011;4073;42.626;25.386;2023-05-18T03:21:03;12.67;;;5.57;;
8060;SDS011;4073;42.626;25.386;2023-05-18T03:23:28;27.37;;;5.67;;
8060;SDS011;4073;42.626;25.386;2023-05-18T03:25:54;17.10;;;5.13;;
8060;SDS011;4073;42.626;25.386;2023-05-18T03:28:19;14.17;;;5.60;;
8060;SDS011;4073;42.626;25.386;2023-05-18T03:30:45;22.27;;;5.33;;
8060;SDS011;4073;42.626;25.386;2023-05-18T03:33:11;13.17;;;5.90;;
8060;SDS011;4073;42.626;25.386;2023-05-18T03:35:37;12.17;;;5.30;;
8060;SDS011;4073;42.626;25.386;2023-05-18T03:38:04;25.63;;;5.93;;
8060;SDS011;4073;42.626;25.386;2023-05-18T03:40:30;16.00;;;7.07;;
8060;SDS011;4073;42.626;25.386;2023-05-18T03:42:56;19.40;;;7.80;;
8060;SDS011;4073;42.626;25.386;2023-05-18T03:45:21;18.40;;;7.73;;
8060;SDS011;4073;42.626;25.386;2023-05-18T03:47:47;25.27;;;6.73;;
8060;SDS011;4073;42.626;25.386;2023-05-18T03:50:12;25.33;;;7.30;;
8060;SDS011;4073;42.626;25.386;2023-05-18T03:52:38;37.40;;;8.50;;
8060;SDS011;4073;42.626;25.386;2023-05-18T03:55:04;29.40;;;7.70;;
8060;SDS011;4073;42.626;25.386;2023-05-18T03:57:30;24.53;;;8.77;;
8060;SDS011;4073;42.626;25.386;2023-05-18T03:59:56;30.43;;;14.50;;
8060;SDS011;4073;42.626;25.386;2023-05-18T04:02:22;56.80;;;10.93;;
8060;SDS011;4073;42.626;25.386;2023-05-18T04:04:48;31.10;;;9.53;;
8060;SDS011;4073;42.626;25.386;2023-05-18T04:07:14;33.40;;;9.87;;
8060;SDS011;4073;42.626;25.386;2023-05-18T04:09:40;57.57;;;10.37;;
8060;SDS011;4073;42.626;25.386;2023-05-18T04:12:07;37.60;;;9.70;;
8060;SDS011;4073;42.626;25.386;2023-05-18T04:14:33;42.53;;;8.40;;
8060;SDS011;4073;42.626;25.386;2023-05-18T04:16:59;65.07;;;10.57;;
8060;SDS011;4073;42.626;25.386;2023-05-18T04:19:32;18.07;;;8.20;;
8060;SDS011;4073;42.626;25.386;2023-05-18T04:21:58;21.93;;;8.70;;
8060;SDS011;4073;42.626;25.386;2023-05-18T04:24:23;39.10;;;9.63;;
8060;SDS011;4073;42.626;25.386;2023-05-18T04:26:51;35.20;;;9.43;;
8060;SDS011;4073;42.626;25.386;2023-05-18T04:29:16;31.03;;;9.83;;
8060;SDS011;4073;42.626;25.386;2023-05-18T04:31:42;15.67;;;8.30;;
8060;SDS011;4073;42.626;25.386;2023-05-18T04:34:11;25.00;;;8.60;;
8060;SDS011;4073;42.626;25.386;2023-05-18T04:36:37;25.17;;;8.33;;
8060;SDS011;4073;42.626;25.386;2023-05-18T04:39:06;24.83;;;9.07;;
8060;SDS011;4073;42.626;25.386;2023-05-18T04:41:33;14.20;;;10.07;;
8060;SDS011;4073;42.626;25.386;2023-05-18T04:43:59;15.63;;;9.47;;
8060;SDS011;4073;42.626;25.386;2023-05-18T04:46:28;18.90;;;9.97;;
8060;SDS011;4073;42.626;25.386;2023-05-18T04:48:53;15.23;;;8.57;;
8060;SDS011;4073;42.626;25.386;2023-05-18T04:51:22;15.73;;;8.73;;
8060;SDS011;4073;42.626;25.386;2023-05-18T04:53:48;10.83;;;8.53;;
8060;SDS011;4073;42.626;25.386;2023-05-18T04:56:16;11.23;;;8.13;;
8060;SDS011;4073;42.626;25.386;2023-05-18T04:58:42;10.90;;;8.03;;
8060;SDS011;4073;42.626;25.386;2023-05-18T05:01:12;7.63;;;6.90;;
8060;SDS011;4073;42.626;25.386;2023-05-18T05:03:39;7.13;;;6.17;;
8060;SDS011;4073;42.626;25.386;2023-05-18T05:06:08;7.53;;;6.07;;
8060;SDS011;4073;42.626;25.386;2023-05-18T05:08:35;6.13;;;5.53;;
8060;SDS011;4073;42.626;25.386;2023-05-18T05:11:01;6.77;;;5.57;;
8060;SDS011;4073;42.626;25.386;2023-05-18T05:13:27;5.50;;;4.93;;
8060;SDS011;4073;42.626;25.386;2023-05-18T05:15:53;5.90;;;4.93;;
8060;SDS011;4073;42.626;25.386;2023-05-18T05:18:18;4.33;;;3.93;;
8060;SDS011;4073;42.626;25.386;2023-05-18T05:20:43;5.10;;;4.70;;
8060;SDS011;4073;42.626;25.386;2023-05-18T05:23:09;5.37;;;4.87;;
8060;SDS011;4073;42.626;25.386;2023-05-18T05:25:34;5.17;;;4.60;;
8060;SDS011;4073;42.626;25.386;2023-05-18T05:28:00;5.23;;;4.73;;
8060;SDS011;4073;42.626;25.386;2023-05-18T05:30:25;5.80;;;5.30;;
8060;SDS011;4073;42.626;25.386;2023-05-18T05:32:51;6.93;;;5.27;;
8060;SDS011;4073;42.626;25.386;2023-05-18T05:35:16;7.10;;;5.77;;
8060;SDS011;4073;42.626;25.386;2023-05-18T05:37:42;7.07;;;5.43;;
8060;SDS011;4073;42.626;25.386;2023-05-18T05:40:07;6.40;;;5.73;;
8060;SDS011;4073;42.626;25.386;2023-05-18T05:42:33;7.17;;;6.40;;
8060;SDS011;4073;42.626;25.386;2023-05-18T05:44:59;7.13;;;6.43;;
8060;SDS011;4073;42.626;25.386;2023-05-18T05:47:25;12.37;;;7.00;;
8060;SDS011;4073;42.626;25.386;2023-05-18T05:49:50;5.17;;;4.67;;
8060;SDS011;4073;42.626;25.386;2023-05-18T05:52:16;5.90;;;5.40;;
8060;SDS011;4073;42.626;25.386;2023-05-18T05:54:41;5.70;;;5.20;;
8060;SDS011;4073;42.626;25.386;2023-05-18T05:57:07;5.67;;;5.17;;
8060;SDS011;4073;42.626;25.386;2023-05-18T05:59:32;5.87;;;5.00;;
8060;SDS011;4073;42.626;25.386;2023-05-18T06:01:57;6.10;;;5.13;;
8060;SDS011;4073;42.626;25.386;2023-05-18T06:04:23;5.17;;;4.67;;
8060;SDS011;4073;42.626;25.386;2023-05-18T06:06:48;6.13;;;5.63;;
8060;SDS011;4073;42.626;25.386;2023-05-18T06:09:14;6.57;;;5.97;;
8060;SDS011;4073;42.626;25.386;2023-05-18T06:11:40;5.83;;;5.33;;
8060;SDS011;4073;42.626;25.386;2023-05-18T06:14:05;9.50;;;7.00;;
8060;SDS011;4073;42.626;25.386;2023-05-18T06:16:31;8.10;;;6.47;;
8060;SDS011;4073;42.626;25.386;2023-05-18T06:18:56;7.17;;;6.40;;
8060;SDS011;4073;42.626;25.386;2023-05-18T06:21:22;6.97;;;6.27;;
8060;SDS011;4073;42.626;25.386;2023-05-18T06:23:47;7.43;;;6.23;;
8060;SDS011;4073;42.626;25.386;2023-05-18T06:26:13;7.07;;;6.37;;
8060;SDS011;4073;42.626;25.386;2023-05-18T06:28:38;7.73;;;6.57;;
8060;SDS011;4073;42.626;25.386;2023-05-18T06:31:04;6.77;;;6.17;;
8060;SDS011;4073;42.626;25.386;2023-05-18T06:33:30;7.90;;;7.00;;
8060;SDS011;4073;42.626;25.386;2023-05-18T06:35:55;8.40;;;6.97;;
8060;SDS011;4073;42.626;25.386;2023-05-18T06:38:21;7.30;;;6.60;;
8060;SDS011;4073;42.626;25.386;2023-05-18T06:40:47;7.43;;;6.50;;
8060;SDS011;4073;42.626;25.386;2023-05-18T06:43:12;6.60;;;6.00;;
8060;SDS011;4073;42.626;25.386;2023-05-18T06:45:38;8.03;;;7.17;;
8060;SDS011;4073;42.626;25.386;2023-05-18T06:48:03;8.43;;;7.63;;
8060;SDS011;4073;42.626;25.386;2023-05-18T06:50:29;9.07;;;7.10;;
8060;SDS011;4073;42.626;25.386;2023-05-18T06:52:55;8.00;;;7.13;;
8060;SDS011;4073;42.626;25.386;2023-05-18T06:55:20;9.10;;;7.00;;
8060;SDS011;4073;42.626;25.386;2023-05-18T06:57:46;8.20;;;7.30;;
8060;SDS011;4073;42.626;25.386;2023-05-18T07:00:11;8.37;;;7.03;;
8060;SDS011;4073;42.626;25.386;2023-05-18T07:02:37;7.17;;;6.47;;
8060;SDS011;4073;42.626;25.386;2023-05-18T07:05:04;10.17;;;7.40;;
8060;SDS011;4073;42.626;25.386;2023-05-18T07:07:33;6.77;;;6.07;;
8060;SDS011;4073;42.626;25.386;2023-05-18T07:09:59;10.87;;;6.40;;
8060;SDS011;4073;42.626;25.386;2023-05-18T07:12:25;10.83;;;6.63;;
8060;SDS011;4073;42.626;25.386;2023-05-18T07:14:51;9.30;;;6.13;;
8060;SDS011;4073;42.626;25.386;2023-05-18T07:17:17;6.87;;;5.73;;
8060;SDS011;4073;42.626;25.386;2023-05-18T07:19:42;7.60;;;5.83;;
8060;SDS011;4073;42.626;25.386;2023-05-18T07:22:07;7.93;;;6.40;;
8060;SDS011;4073;42.626;25.386;2023-05-18T07:24:33;11.97;;;9.40;;
8060;SDS011;4073;42.626;25.386;2023-05-18T07:26:58;8.53;;;6.60;;
8060;SDS011;4073;42.626;25.386;2023-05-18T07:29:24;6.07;;;5.23;;
8060;SDS011;4073;42.626;25.386;2023-05-18T07:31:50;5.90;;;5.40;;
8060;SDS011;4073;42.626;25.386;2023-05-18T07:34:15;6.57;;;5.93;;
8060;SDS011;4073;42.626;25.386;2023-05-18T07:36:41;7.07;;;6.37;;
8060;SDS011;4073;42.626;25.386;2023-05-18T07:39:06;6.50;;;5.70;;
8060;SDS011;4073;42.626;25.386;2023-05-18T07:41:33;7.47;;;5.50;;
8060;SDS011;4073;42.626;25.386;2023-05-18T07:43:58;6.37;;;5.77;;
8060;SDS011;4073;42.626;25.386;2023-05-18T07:46:24;7.13;;;4.97;;
8060;SDS011;4073;42.626;25.386;2023-05-18T07:48:50;8.93;;;8.03;;
8060;SDS011;4073;42.626;25.386;2023-05-18T07:51:15;8.13;;;7.13;;
8060;SDS011;4073;42.626;25.386;2023-05-18T07:53:41;15.40;;;7.17;;
8060;SDS011;4073;42.626;25.386;2023-05-18T07:56:06;10.80;;;8.97;;
8060;SDS011;4073;42.626;25.386;2023-05-18T07:58:35;9.43;;;6.63;;
8060;SDS011;4073;42.626;25.386;2023-05-18T08:01:01;14.23;;;8.50;;
8060;SDS011;4073;42.626;25.386;2023-05-18T08:03:26;13.27;;;9.53;;
8060;SDS011;4073;42.626;25.386;2023-05-18T08:05:52;12.70;;;7.60;;
8060;SDS011;4073;42.626;25.386;2023-05-18T08:08:17;5.77;;;4.80;;
8060;SDS011;4073;42.626;25.386;2023-05-18T08:10:44;7.70;;;5.23;;
8060;SDS011;4073;42.626;25.386;2023-05-18T08:13:10;7.23;;;5.20;;
8060;SDS011;4073;42.626;25.386;2023-05-18T08:15:35;10.00;;;6.33;;
8060;SDS011;4073;42.626;25.386;2023-05-18T08:18:01;5.10;;;3.70;;
8060;SDS011;4073;42.626;25.386;2023-05-18T08:20:26;9.63;;;5.63;;
8060;SDS011;4073;42.626;25.386;2023-05-18T08:22:55;8.03;;;4.10;;
8060;SDS011;4073;42.626;25.386;2023-05-18T08:25:21;3.00;;;2.60;;
8060;SDS011;4073;42.626;25.386;2023-05-18T08:27:47;4.27;;;2.60;;
8060;SDS011;4073;42.626;25.386;2023-05-18T08:30:13;2.43;;;2.23;;
8060;SDS011;4073;42.626;25.386;2023-05-18T08:32:39;3.10;;;2.50;;
8060;SDS011;4073;42.626;25.386;2023-05-18T08:35:05;3.77;;;2.60;;
8060;SDS011;4073;42.626;25.386;2023-05-18T08:37:32;4.73;;;3.20;;
8060;SDS011;4073;42.626;25.386;2023-05-18T08:39:58;3.87;;;3.30;;
8060;SDS011;4073;42.626;25.386;2023-05-18T08:42:32;6.80;;;2.40;;
8060;SDS011;4073;42.626;25.386;2023-05-18T08:45:09;3.93;;;2.63;;
8060;SDS011;4073;42.626;25.386;2023-05-18T08:47:37;3.77;;;2.50;;
8060;SDS011;4073;42.626;25.386;2023-05-18T08:50:02;4.60;;;2.43;;
8060;SDS011;4073;42.626;25.386;2023-05-18T08:52:32;3.57;;;2.40;;
8060;SDS011;4073;42.626;25.386;2023-05-18T08:55:02;4.53;;;2.10;;
8060;SDS011;4073;42.626;25.386;2023-05-18T08:57:30;3.30;;;2.30;;
8060;SDS011;4073;42.626;25.386;2023-05-18T08:59:58;4.17;;;2.27;;
8060;SDS011;4073;42.626;25.386;2023-05-18T09:02:26;2.83;;;2.43;;
8060;SDS011;4073;42.626;25.386;2023-05-18T09:04:53;3.43;;;2.50;;
8060;SDS011;4073;42.626;25.386;2023-05-18T09:07:19;2.53;;;1.87;;
8060;SDS011;4073;42.626;25.386;2023-05-18T09:09:46;3.97;;;2.07;;
8060;SDS011;4073;42.626;25.386;2023-05-18T09:12:13;2.63;;;1.83;;
8060;SDS011;4073;42.626;25.386;2023-05-18T09:14:40;2.30;;;2.00;;
8060;SDS011;4073;42.626;25.386;2023-05-18T09:17:07;4.57;;;2.10;;
8060;SDS011;4073;42.626;25.386;2023-05-18T09:19:33;2.40;;;2.20;;
8060;SDS011;4073;42.626;25.386;2023-05-18T09:21:59;2.07;;;1.87;;
8060;SDS011;4073;42.626;25.386;2023-05-18T09:24:25;3.00;;;2.13;;
8060;SDS011;4073;42.626;25.386;2023-05-18T09:26:51;3.67;;;2.40;;
8060;SDS011;4073;42.626;25.386;2023-05-18T09:29:35;5.77;;;2.10;;
8060;SDS011;4073;42.626;25.386;2023-05-18T09:34:44;4.70;;;3.90;;
8060;SDS011;4073;42.626;25.386;2023-05-18T09:37:14;4.33;;;3.20;;
8060;SDS011;4073;42.626;25.386;2023-05-18T09:39:40;4.63;;;3.00;;
8060;SDS011;4073;42.626;25.386;2023-05-18T09:42:06;4.33;;;2.80;;
8060;SDS011;4073;42.626;25.386;2023-05-18T09:44:35;5.40;;;3.17;;
8060;SDS011;4073;42.626;25.386;2023-05-18T09:47:01;5.50;;;3.47;;
8060;SDS011;4073;42.626;25.386;2023-05-18T09:49:28;4.43;;;4.00;;
8060;SDS011;4073;42.626;25.386;2023-05-18T09:51:55;8.23;;;3.97;;
8060;SDS011;4073;42.626;25.386;2023-05-18T09:54:23;8.00;;;4.30;;
8060;SDS011;4073;42.626;25.386;2023-05-18T09:56:49;5.70;;;3.83;;
8060;SDS011;4073;42.626;25.386;2023-05-18T09:59:15;8.10;;;4.47;;
8060;SDS011;4073;42.626;25.386;2023-05-18T10:01:57;5.13;;;3.93;;
8060;SDS011;4073;42.626;25.386;2023-05-18T10:07:01;5.30;;;4.33;;
8060;SDS011;4073;42.626;25.386;2023-05-18T10:09:27;4.60;;;3.50;;
8060;SDS011;4073;42.626;25.386;2023-05-18T10:11:53;7.63;;;5.27;;
8060;SDS011;4073;42.626;25.386;2023-05-18T10:14:22;9.50;;;4.37;;
8060;SDS011;4073;42.626;25.386;2023-05-18T10:16:50;5.27;;;4.07;;
8060;SDS011;4073;42.626;25.386;2023-05-18T10:19:16;3.80;;;3.40;;
8060;SDS011;4073;42.626;25.386;2023-05-18T10:21:42;5.17;;;3.27;;
8060;SDS011;4073;42.626;25.386;2023-05-18T10:24:08;11.23;;;6.03;;
8060;SDS011;4073;42.626;25.386;2023-05-18T10:26:39;19.20;;;13.10;;
8060;SDS011;4073;42.626;25.386;2023-05-18T10:29:07;15.73;;;10.97;;
8060;SDS011;4073;42.626;25.386;2023-05-18T10:31:34;8.50;;;5.73;;
8060;SDS011;4073;42.626;25.386;2023-05-18T10:34:02;32.87;;;25.60;;
8060;SDS011;4073;42.626;25.386;2023-05-18T10:36:28;18.60;;;12.77;;
8060;SDS011;4073;42.626;25.386;2023-05-18T10:38:56;24.60;;;18.60;;
8060;SDS011;4073;42.626;25.386;2023-05-18T10:41:24;48.03;;;32.73;;
8060;SDS011;4073;42.626;25.386;2023-05-18T10:43:50;5.13;;;4.63;;
8060;SDS011;4073;42.626;25.386;2023-05-18T10:46:18;4.17;;;3.77;;
8060;SDS011;4073;42.626;25.386;2023-05-18T10:48:50;4.10;;;3.70;;
8060;SDS011;4073;42.626;25.386;2023-05-18T10:51:17;4.00;;;3.60;;
8060;SDS011;4073;42.626;25.386;2023-05-18T10:53:44;4.67;;;4.17;;
8060;SDS011;4073;42.626;25.386;2023-05-18T10:56:11;3.03;;;2.77;;
8060;SDS011;4073;42.626;25.386;2023-05-18T10:58:39;6.13;;;3.70;;
8060;SDS011;4073;42.626;25.386;2023-05-18T11:01:08;4.10;;;3.40;;
8060;SDS011;4073;42.626;25.386;2023-05-18T11:03:36;3.93;;;3.53;;
8060;SDS011;4073;42.626;25.386;2023-05-18T11:06:06;5.33;;;3.53;;
8060;SDS011;4073;42.626;25.386;2023-05-18T11:08:47;2.63;;;2.30;;
8060;SDS011;4073;42.626;25.386;2023-05-18T11:11:14;6.17;;;2.90;;
8060;SDS011;4073;42.626;25.386;2023-05-18T11:13:44;4.70;;;2.63;;
8060;SDS011;4073;42.626;25.386;2023-05-18T11:16:13;3.53;;;2.80;;
8060;SDS011;4073;42.626;25.386;2023-05-18T11:18:41;4.17;;;2.77;;
8060;SDS011;4073;42.626;25.386;2023-05-18T11:26:41;2.10;;;1.77;;
8060;SDS011;4073;42.626;25.386;2023-05-18T11:29:18;3.17;;;2.87;;
8060;SDS011;4073;42.626;25.386;2023-05-18T11:31:59;3.87;;;2.57;;
8060;SDS011;4073;42.626;25.386;2023-05-18T11:37:14;3.77;;;3.00;;
8060;SDS011;4073;42.626;25.386;2023-05-18T11:39:41;2.37;;;2.17;;
8060;SDS011;4073;42.626;25.386;2023-05-18T11:42:18;1.60;;;1.50;;
8060;SDS011;4073;42.626;25.386;2023-05-18T11:44:50;2.10;;;1.90;;
8060;SDS011;4073;42.626;25.386;2023-05-18T11:47:17;3.80;;;3.50;;
8060;SDS011;4073;42.626;25.386;2023-05-18T11:49:47;2.43;;;1.90;;
8060;SDS011;4073;42.626;25.386;2023-05-18T11:52:15;2.03;;;1.40;;
8060;SDS011;4073;42.626;25.386;2023-05-18T11:54:48;2.37;;;1.80;;
8060;SDS011;4073;42.626;25.386;2023-05-18T11:57:19;2.37;;;2.03;;
8060;SDS011;4073;42.626;25.386;2023-05-18T11:59:52;2.27;;;1.90;;
8060;SDS011;4073;42.626;25.386;2023-05-18T12:02:20;3.13;;;2.00;;
8060;SDS011;4073;42.626;25.386;2023-05-18T12:04:51;2.20;;;2.00;;
8060;SDS011;4073;42.626;25.386;2023-05-18T12:07:18;2.07;;;1.87;;
8060;SDS011;4073;42.626;25.386;2023-05-18T12:09:45;2.27;;;1.90;;
8060;SDS011;4073;42.626;25.386;2023-05-18T12:12:12;2.10;;;1.77;;
8060;SDS011;4073;42.626;25.386;2023-05-18T12:14:41;2.27;;;2.00;;
8060;SDS011;4073;42.626;25.386;2023-05-18T12:17:08;2.07;;;1.80;;
8060;SDS011;4073;42.626;25.386;2023-05-18T12:19:40;2.40;;;2.00;;
8060;SDS011;4073;42.626;25.386;2023-05-18T12:22:08;2.80;;;2.00;;
8060;SDS011;4073;42.626;25.386;2023-05-18T12:24:35;2.33;;;1.90;;
8060;SDS011;4073;42.626;25.386;2023-05-18T12:27:01;2.50;;;1.87;;
8060;SDS011;4073;42.626;25.386;2023-05-18T12:29:29;3.03;;;2.30;;
8060;SDS011;4073;42.626;25.386;2023-05-18T12:31:55;3.97;;;2.50;;
8060;SDS011;4073;42.626;25.386;2023-05-18T12:34:20;4.70;;;3.00;;
8060;SDS011;4073;42.626;25.386;2023-05-18T12:36:52;5.30;;;3.10;;
8060;SDS011;4073;42.626;25.386;2023-05-18T12:39:19;4.70;;;2.47;;
8060;SDS011;4073;42.626;25.386;2023-05-18T12:41:45;2.47;;;2.00;;
8060;SDS011;4073;42.626;25.386;2023-05-18T12:44:11;2.30;;;2.10;;
8060;SDS011;4073;42.626;25.386;2023-05-18T12:46:37;2.03;;;1.87;;
8060;SDS011;4073;42.626;25.386;2023-05-18T12:49:02;2.67;;;1.90;;
8060;SDS011;4073;42.626;25.386;2023-05-18T12:51:33;3.40;;;2.00;;
8060;SDS011;4073;42.626;25.386;2023-05-18T12:54:03;1.80;;;1.67;;
8060;SDS011;4073;42.626;25.386;2023-05-18T12:56:48;2.80;;;2.03;;
8060;SDS011;4073;42.626;25.386;2023-05-18T12:59:23;3.67;;;3.20;;
8060;SDS011;4073;42.626;25.386;2023-05-18T13:01:50;3.03;;;2.70;;
8060;SDS011;4073;42.626;25.386;2023-05-18T13:04:15;3.40;;;3.10;;
8060;SDS011;4073;42.626;25.386;2023-05-18T13:06:40;5.20;;;3.37;;
8060;SDS011;4073;42.626;25.386;2023-05-18T13:09:15;3.87;;;2.70;;
8060;SDS011;4073;42.626;25.386;2023-05-18T13:11:49;3.03;;;2.43;;
8060;SDS011;4073;42.626;25.386;2023-05-18T13:14:18;3.47;;;3.03;;
8060;SDS011;4073;42.626;25.386;2023-05-18T13:16:48;3.97;;;2.97;;
8060;SDS011;4073;42.626;25.386;2023-05-18T13:19:15;5.50;;;4.00;;
8060;SDS011;4073;42.626;25.386;2023-05-18T13:21:42;3.57;;;3.27;;
8060;SDS011;4073;42.626;25.386;2023-05-18T13:24:08;4.63;;;3.93;;
8060;SDS011;4073;42.626;25.386;2023-05-18T13:26:34;4.03;;;3.30;;
8060;SDS011;4073;42.626;25.386;2023-05-18T13:28:59;2.63;;;2.43;;
8060;SDS011;4073;42.626;25.386;2023-05-18T13:31:25;3.80;;;3.47;;
8060;SDS011;4073;42.626;25.386;2023-05-18T13:33:50;4.13;;;3.77;;
8060;SDS011;4073;42.626;25.386;2023-05-18T13:36:16;3.57;;;3.27;;
8060;SDS011;4073;42.626;25.386;2023-05-18T13:38:42;4.47;;;3.37;;
8060;SDS011;4073;42.626;25.386;2023-05-18T13:41:11;8.30;;;4.60;;
8060;SDS011;4073;42.626;25.386;2023-05-18T13:43:39;6.13;;;5.53;;
8060;SDS011;4073;42.626;25.386;2023-05-18T13:46:06;5.33;;;4.40;;
8060;SDS011;4073;42.626;25.386;2023-05-18T13:48:31;5.07;;;4.57;;
8060;SDS011;4073;42.626;25.386;2023-05-18T13:50:57;4.20;;;3.20;;
8060;SDS011;4073;42.626;25.386;2023-05-18T13:53:22;3.13;;;2.47;;
8060;SDS011;4073;42.626;25.386;2023-05-18T13:55:48;5.13;;;2.90;;
8060;SDS011;4073;42.626;25.386;2023-05-18T13:58:14;3.20;;;2.80;;
8060;SDS011;4073;42.626;25.386;2023-05-18T14:00:39;4.80;;;4.40;;
8060;SDS011;4073;42.626;25.386;2023-05-18T14:03:05;6.40;;;4.13;;
8060;SDS011;4073;42.626;25.386;2023-05-18T14:05:31;8.13;;;6.40;;
8060;SDS011;4073;42.626;25.386;2023-05-18T14:07:56;14.00;;;10.80;;
8060;SDS011;4073;42.626;25.386;2023-05-18T14:10:22;11.60;;;5.53;;
8060;SDS011;4073;42.626;25.386;2023-05-18T14:12:48;3.90;;;3.50;;
8060;SDS011;4073;42.626;25.386;2023-05-18T14:15:13;3.00;;;2.60;;
8060;SDS011;4073;42.626;25.386;2023-05-18T14:17:39;2.80;;;2.47;;
8060;SDS011;4073;42.626;25.386;2023-05-18T14:20:06;5.37;;;3.20;;
8060;SDS011;4073;42.626;25.386;2023-05-18T14:22:32;7.93;;;6.37;;
8060;SDS011;4073;42.626;25.386;2023-05-18T14:24:58;9.00;;;6.53;;
8060;SDS011;4073;42.626;25.386;2023-05-18T14:27:23;4.13;;;3.73;;
8060;SDS011;4073;42.626;25.386;2023-05-18T14:29:49;3.00;;;2.70;;
8060;SDS011;4073;42.626;25.386;2023-05-18T14:32:15;2.57;;;2.23;;
8060;SDS011;4073;42.626;25.386;2023-05-18T14:34:41;4.33;;;3.90;;
8060;SDS011;4073;42.626;25.386;2023-05-18T14:37:07;3.97;;;2.90;;
8060;SDS011;4073;42.626;25.386;2023-05-18T14:39:32;3.17;;;2.87;;
8060;SDS011;4073;42.626;25.386;2023-05-18T14:41:58;4.20;;;2.50;;
8060;SDS011;4073;42.626;25.386;2023-05-18T14:44:23;3.30;;;3.00;;
8060;SDS011;4073;42.626;25.386;2023-05-18T14:46:49;5.50;;;3.80;;
8060;SDS011;4073;42.626;25.386;2023-05-18T14:49:14;4.77;;;3.33;;
8060;SDS011;4073;42.626;25.386;2023-05-18T14:51:40;4.80;;;3.80;;
8060;SDS011;4073;42.626;25.386;2023-05-18T14:54:05;3.93;;;3.63;;
8060;SDS011;4073;42.626;25.386;2023-05-18T14:56:31;3.30;;;2.97;;
8060;SDS011;4073;42.626;25.386;2023-05-18T14:58:56;3.40;;;2.90;;
8060;SDS011;4073;42.626;25.386;2023-05-18T15:01:22;3.40;;;3.00;;
8060;SDS011;4073;42.626;25.386;2023-05-18T15:03:47;4.33;;;3.40;;
8060;SDS011;4073;42.626;25.386;2023-05-18T15:06:13;3.50;;;3.20;;
8060;SDS011;4073;42.626;25.386;2023-05-18T15:08:38;4.47;;;3.80;;
8060;SDS011;4073;42.626;25.386;2023-05-18T15:11:04;6.80;;;6.23;;
8060;SDS011;4073;42.626;25.386;2023-05-18T15:13:29;5.83;;;5.33;;
8060;SDS011;4073;42.626;25.386;2023-05-18T15:15:55;4.70;;;4.30;;